Time;durP1;ratioP1;P1;durP2;ratioP2;P2;SDS_P1;SDS_P2;PMS_P1;PMS_P2;Temp;Humidity;BMP_temperature;BMP_pressure;BME280_temperature;BME280_humidity;BME280_pressure;Samples;Min_cycle;Max_cycle;Signal;HPM_P1;HPM_P2
2023/02/03 00:01:25;;;;;;;5.10;2.90;;;1.50;99.90;2.70;97522.00;;;;4990184;28;20500;-65
2023/02/03 00:04:14;;;;;;;3.10;2.90;;;1.30;99.90;2.70;97524.00;;;;4991087;28;20438;-65
2023/02/03 00:07:05;;;;;;;2.40;2.20;;;1.30;99.90;2.70;97519.00;;;;4990393;28;20995;-65
2023/02/03 00:09:54;;;;;;;2.90;2.70;;;1.40;99.90;2.70;97515.00;;;;4990078;28;20454;-65
2023/02/03 00:12:43;;;;;;;3.13;2.40;;;1.30;99.90;2.70;97517.00;;;;4983860;28;20824;-67
2023/02/03 00:15:32;;;;;;;2.70;2.20;;;1.40;99.90;2.60;97519.00;;;;4990266;28;20568;-66
2023/02/03 00:18:21;;;;;;;2.00;1.90;;;1.50;99.90;2.60;97515.00;;;;4989430;28;21176;-66
2023/02/03 00:21:09;;;;;;;2.60;2.13;;;1.30;99.90;2.60;97517.00;;;;4990225;28;20431;-67
2023/02/03 00:23:59;;;;;;;2.07;1.87;;;1.40;99.90;2.60;97514.00;;;;4990156;28;20484;-67
2023/02/03 00:26:48;;;;;;;2.20;2.00;;;1.50;99.90;2.60;97521.00;;;;4990836;28;20430;-66
2023/02/03 00:29:37;;;;;;;2.30;2.10;;;1.40;99.90;2.60;97519.00;;;;4989402;28;20444;-66
2023/02/03 00:32:26;;;;;;;2.70;2.37;;;1.50;99.90;2.60;97514.00;;;;4989962;28;20828;-67
2023/02/03 00:35:14;;;;;;;2.57;2.20;;;1.40;99.90;2.60;97519.00;;;;4989193;28;20427;-66
2023/02/03 00:38:03;;;;;;;2.37;2.07;;;1.30;99.90;2.60;97524.00;;;;4994937;28;20496;-66
2023/02/03 00:40:54;;;;;;;1.63;1.53;;;1.40;99.90;2.60;97522.00;;;;4977928;28;20941;-67
2023/02/03 00:43:43;;;;;;;1.50;1.40;;;1.30;99.90;2.60;97520.00;;;;4989587;28;20846;-67
2023/02/03 00:46:34;;;;;;;1.60;1.47;;;1.30;99.90;2.60;97522.00;;;;4989760;28;20434;-66
2023/02/03 00:49:23;;;;;;;1.97;1.67;;;1.30;99.90;2.60;97524.00;;;;4989524;28;20462;-67
2023/02/03 00:52:12;;;;;;;1.57;1.40;;;1.50;99.90;2.60;97520.00;;;;4989956;28;20438;-66
2023/02/03 00:55:00;;;;;;;1.90;1.80;;;1.30;99.90;2.40;97524.00;;;;4989887;28;20489;-67
2023/02/03 00:57:50;;;;;;;1.63;1.53;;;1.30;99.90;2.40;97523.00;;;;4989298;28;20466;-67
2023/02/03 01:00:39;;;;;;;2.97;2.43;;;1.30;99.90;2.50;97518.00;;;;4982008;28;20441;-67
2023/02/03 01:03:28;;;;;;;2.83;2.40;;;1.30;99.90;2.60;97518.00;;;;4989631;28;20429;-66
2023/02/03 01:06:20;;;;;;;2.50;2.03;;;1.40;99.90;2.50;97520.00;;;;4989700;28;20430;-67
2023/02/03 01:09:08;;;;;;;1.50;1.33;;;1.30;99.90;2.50;97511.00;;;;4989207;28;20438;-66
2023/02/03 01:11:57;;;;;;;2.80;1.77;;;1.30;99.90;2.30;97509.00;;;;4986388;28;20447;-67
2023/02/03 01:14:47;;;;;;;2.57;2.37;;;1.20;99.90;2.00;97510.00;;;;4978959;28;20480;-67
2023/02/03 01:17:36;;;;;;;4.57;2.20;;;1.20;99.90;2.20;97515.00;;;;4988828;28;20473;-67
2023/02/03 01:20:24;;;;;;;3.50;3.13;;;1.20;99.90;2.40;97501.00;;;;4989260;28;20425;-66
2023/02/03 01:23:14;;;;;;;2.37;2.00;;;1.10;99.90;2.40;97499.00;;;;4989609;28;20446;-67
2023/02/03 01:26:04;;;;;;;5.47;2.87;;;1.10;99.90;2.40;97489.00;;;;4989642;28;20414;-67
2023/02/03 01:28:54;;;;;;;3.67;2.83;;;1.20;99.90;2.10;97485.00;;;;4990152;28;20858;-66
2023/02/03 01:31:45;;;;;;;3.33;3.03;;;1.20;99.90;2.20;97485.00;;;;4989353;28;20453;-67
2023/02/03 01:34:34;;;;;;;3.97;3.27;;;1.20;99.90;2.40;97473.00;;;;4989716;28;20434;-67
2023/02/03 01:37:22;;;;;;;6.22;4.25;;;1.60;99.90;2.30;97486.00;;;;4986749;28;20398;-67
2023/02/03 01:40:13;;;;;;;4.47;3.30;;;1.10;99.90;2.40;97465.00;;;;4992902;28;20199;-66
2023/02/03 01:43:01;;;;;;;3.87;2.97;;;1.10;99.90;2.20;97481.00;;;;4989947;28;20446;-66
2023/02/03 01:45:50;;;;;;;2.70;2.47;;;1.10;99.90;2.20;97458.00;;;;4989366;28;20473;-67
2023/02/03 01:48:40;;;;;;;4.97;4.07;;;1.10;99.90;2.10;97463.00;;;;4989642;28;20453;-67
2023/02/03 01:51:30;;;;;;;3.07;2.80;;;1.10;99.90;2.30;97468.00;;;;4989128;28;20453;-66
2023/02/03 01:54:23;;;;;;;2.47;2.13;;;1.10;99.90;2.00;97452.00;;;;4989489;28;20484;-67
2023/02/03 01:57:20;;;;;;;3.90;3.33;;;1.10;99.90;2.40;97451.00;;;;4991998;28;20462;-67
2023/02/03 02:00:11;;;;;;;2.50;2.30;;;1.10;99.90;2.40;97460.00;;;;4993171;28;20429;-67
2023/02/03 02:03:01;;;;;;;2.63;2.33;;;1.10;99.90;2.50;97456.00;;;;4993883;28;20488;-67
2023/02/03 02:05:56;;;;;;;3.13;2.20;;;1.20;99.90;2.50;97455.00;;;;4992593;28;20437;-67
2023/02/03 02:08:50;;;;;;;5.20;3.10;;;1.20;99.90;2.50;97453.00;;;;4992896;28;20441;-67
2023/02/03 02:11:39;;;;;;;3.90;2.73;;;1.20;99.90;2.50;97453.00;;;;4991794;28;20939;-66
2023/02/03 02:14:28;;;;;;;8.80;2.93;;;1.20;99.90;2.50;97448.00;;;;4992691;28;20488;-67
2023/02/03 02:17:44;;;;;;;3.53;2.60;;;1.20;99.90;2.50;97442.00;;;;4991848;28;20473;-67
2023/02/03 02:20:52;;;;;;;3.23;2.93;;;1.20;99.90;2.40;97447.00;;;;4992497;28;20433;-67
2023/02/03 02:24:44;;;;;;;2.77;2.50;;;1.20;99.90;2.40;97450.00;;;;4991879;28;20429;-67
2023/02/03 02:28:41;;;;;;;2.90;2.70;;;1.20;99.90;2.20;97449.00;;;;4973366;28;20438;-66
2023/02/03 02:31:55;;;;;;;3.40;3.10;;;1.20;99.90;2.10;97452.00;;;;4867450;29;20508;-66
2023/02/03 02:34:58;;;;;;;3.53;2.47;;;1.10;99.90;2.20;97435.00;;;;4915233;29;20437;-67
2023/02/03 02:37:55;;;;;;;2.47;2.27;;;1.10;99.90;2.30;97434.00;;;;4987894;28;21254;-67
2023/02/03 02:40:53;;;;;;;5.13;3.63;;;1.10;99.90;2.20;97438.00;;;;4971710;28;21355;-67
2023/02/03 02:43:47;;;;;;;3.43;2.33;;;1.10;99.90;2.10;97434.00;;;;4991928;28;20858;-67
2023/02/03 02:46:42;;;;;;;3.80;2.83;;;1.10;99.90;2.20;97438.00;;;;4992005;28;20430;-67
2023/02/03 02:49:37;;;;;;;4.03;3.10;;;1.30;99.90;2.10;97444.00;;;;4992119;28;20426;-67
2023/02/03 02:52:30;;;;;;;2.60;2.40;;;1.10;99.90;2.10;97435.00;;;;4991804;28;20469;-67
2023/02/03 02:55:25;;;;;;;3.17;2.87;;;1.00;99.90;2.20;97431.00;;;;4980467;28;20636;-67
2023/02/03 02:58:16;;;;;;;4.17;3.27;;;1.10;99.90;2.30;97434.00;;;;4991007;28;21056;-67
2023/02/03 03:01:08;;;;;;;5.13;3.10;;;1.00;99.90;2.30;97427.00;;;;4991607;28;20462;-67
2023/02/03 03:04:03;;;;;;;2.33;2.13;;;1.00;99.90;2.20;97435.00;;;;4991626;28;20835;-67
2023/02/03 03:06:56;;;;;;;2.40;2.20;;;1.00;99.90;2.20;97425.00;;;;4992488;28;20453;-67
2023/02/03 03:09:51;;;;;;;3.37;2.37;;;1.00;99.90;2.20;97432.00;;;;4992306;28;20434;-67
2023/02/03 03:12:46;;;;;;;2.90;2.53;;;1.20;99.90;2.20;97430.00;;;;4985281;28;20989;-66
2023/02/03 03:15:38;;;;;;;3.10;2.23;;;1.00;99.90;2.20;97423.00;;;;4991531;28;20426;-66
2023/02/03 03:18:33;;;;;;;4.30;3.90;;;1.00;99.90;2.20;97427.00;;;;4990842;28;20470;-67
2023/02/03 03:21:28;;;;;;;4.57;3.67;;;1.00;99.90;2.20;97429.00;;;;4991418;28;20588;-66
2023/02/03 03:24:24;;;;;;;7.87;5.53;;;1.00;99.90;2.20;97435.00;;;;4990711;28;20481;-67
2023/02/03 03:27:18;;;;;;;4.80;4.13;;;1.00;99.90;2.30;97421.00;;;;4991203;28;20539;-66
2023/02/03 03:30:12;;;;;;;4.17;3.70;;;1.00;99.90;2.20;97410.00;;;;4990892;28;21161;-67
2023/02/03 03:33:01;;;;;;;16.43;5.53;;;1.00;99.90;2.10;97425.00;;;;5045240;23;20637;-86
2023/02/03 03:35:55;;;;;;;8.73;5.00;;;2.00;99.90;2.20;97422.00;;;;5059985;28;20430;-85
2023/02/03 03:38:55;;;;;;;10.73;6.63;;;1.00;99.90;2.20;97430.00;;;;5064601;28;20471;-87
2023/02/03 03:41:55;;;;;;;5.37;4.47;;;1.00;99.90;2.20;97426.00;;;;5055523;28;20435;-86
2023/02/03 03:44:53;;;;;;;6.80;5.73;;;1.10;99.90;2.20;97416.00;;;;5063712;28;20434;-86
2023/02/03 03:47:48;;;;;;;7.47;6.00;;;1.20;99.90;2.30;97427.00;;;;5059328;28;20439;-86
2023/02/03 03:50:42;;;;;;;8.57;5.17;;;1.00;99.90;2.30;97420.00;;;;5071907;28;20430;-87
2023/02/03 03:53:34;;;;;;;8.17;5.90;;;1.70;99.90;2.20;97426.00;;;;5056019;28;20446;-87
2023/02/03 03:56:30;;;;;;;8.73;4.87;;;1.20;99.90;2.30;97436.00;;;;5056550;28;20440;-86
2023/02/03 03:59:22;;;;;;;8.40;6.07;;;1.00;99.90;2.20;97424.00;;;;5055683;28;20501;-86
2023/02/03 04:02:13;;;;;;;8.03;5.53;;;1.60;99.90;2.30;97419.00;;;;5057154;28;20438;-86
2023/02/03 04:05:03;;;;;;;8.33;5.63;;;2.70;99.90;2.30;97418.00;;;;5057845;28;20764;-86
2023/02/03 04:07:52;;;;;;;10.10;5.13;;;2.20;99.90;2.30;97418.00;;;;5044954;28;20988;-87
2023/02/03 04:10:42;;;;;;;7.10;5.47;;;3.60;99.90;2.30;97426.00;;;;5055729;28;20436;-86
2023/02/03 04:13:33;;;;;;;5.20;4.13;;;1.00;99.90;2.30;97416.00;;;;5056656;28;20435;-87
2023/02/03 04:16:21;;;;;;;5.13;4.63;;;1.20;99.90;2.30;97412.00;;;;5058088;28;20599;-86
2023/02/03 04:19:10;;;;;;;6.77;4.43;;;1.10;99.90;2.20;97406.00;;;;5053928;28;20480;-87
2023/02/03 04:21:59;;;;;;;10.20;7.13;;;1.30;99.90;2.00;97412.00;;;;5054733;28;20859;-86
2023/02/03 04:24:48;;;;;;;10.53;6.50;;;1.10;99.90;1.90;97414.00;;;;5055177;28;20434;-86
2023/02/03 04:27:36;;;;;;;8.97;7.67;;;1.00;99.90;1.80;97410.00;;;;5054182;28;20448;-87
2023/02/03 04:30:27;;;;;;;10.40;5.90;;;0.90;99.90;2.10;97421.00;;;;5055208;28;20438;-87
2023/02/03 04:33:16;;;;;;;12.67;6.43;;;1.70;99.90;1.90;97428.00;;;;5054354;28;20443;-87
2023/02/03 04:36:05;;;;;;;10.10;6.77;;;1.30;99.90;2.10;97434.00;;;;5063126;28;20561;-86
2023/02/03 04:38:56;;;;;;;14.57;8.90;;;0.90;99.90;2.20;97418.00;;;;5054129;28;20487;-87
2023/02/03 04:41:44;;;;;;;8.97;6.60;;;1.30;99.90;2.30;97440.00;;;;5052762;28;20435;-87
2023/02/03 04:44:33;;;;;;;8.17;5.10;;;1.00;99.90;2.30;97444.00;;;;5054548;28;20435;-87
2023/02/03 04:47:23;;;;;;;7.37;5.77;;;1.00;99.90;2.10;97429.00;;;;5052893;28;20475;-87
2023/02/03 04:50:12;;;;;;;8.47;5.63;;;2.60;99.90;2.20;97435.00;;;;5042526;28;20419;-88
2023/02/03 04:53:01;;;;;;;6.13;3.73;;;1.00;99.90;2.10;97428.00;;;;5055734;28;20438;-87
2023/02/03 04:55:50;;;;;;;5.03;4.27;;;2.70;99.90;2.20;97429.00;;;;5055205;28;20431;-87
2023/02/03 04:58:38;;;;;;;4.43;3.87;;;1.00;99.90;2.40;97420.00;;;;5053785;28;20462;-87
2023/02/03 05:01:27;;;;;;;5.87;4.13;;;1.40;99.90;2.50;97429.00;;;;5054614;28;20424;-87
2023/02/03 05:04:18;;;;;;;4.57;3.73;;;1.60;99.90;2.30;97434.00;;;;5056606;28;20431;-87
2023/02/03 05:07:06;;;;;;;5.57;4.07;;;1.10;99.90;2.40;97416.00;;;;5053821;28;20918;-86
2023/02/03 05:09:55;;;;;;;4.83;4.37;;;1.90;99.90;2.40;97422.00;;;;5046508;28;20443;-87
2023/02/03 05:12:44;;;;;;;4.47;3.87;;;1.10;99.90;2.40;97408.00;;;;5051871;28;20455;-87
2023/02/03 05:15:33;;;;;;;3.70;3.23;;;1.10;99.90;2.40;97411.00;;;;5049370;28;20715;-87
2023/02/03 05:18:21;;;;;;;5.87;4.63;;;1.10;99.90;2.30;97410.00;;;;5047103;28;20864;-86
2023/02/03 05:21:12;;;;;;;4.23;3.83;;;1.10;99.90;2.40;97425.00;;;;5047996;28;20857;-86
2023/02/03 05:24:02;;;;;;;5.47;4.90;;;1.70;99.90;2.30;97429.00;;;;5057457;28;20426;-86
2023/02/03 05:26:51;;;;;;;5.13;3.50;;;1.10;99.90;2.30;97419.00;;;;5058067;28;20457;-87
2023/02/03 05:29:40;;;;;;;5.20;4.27;;;1.10;99.90;2.30;97430.00;;;;5052299;28;20423;-87
2023/02/03 05:32:28;;;;;;;5.33;3.73;;;1.00;99.90;2.30;97436.00;;;;5055717;28;20865;-87
2023/02/03 05:35:17;;;;;;;4.00;3.37;;;1.00;99.90;2.10;97430.00;;;;5057897;28;20419;-86
2023/02/03 05:38:08;;;;;;;5.77;4.93;;;1.00;99.90;2.00;97424.00;;;;5055346;28;20458;-88
2023/02/03 05:44:03;;;;;;;4.50;4.10;;;1.00;99.90;2.10;97426.00;;;;5051105;28;20454;-87
2023/02/03 05:46:54;;;;;;;3.40;3.10;;;1.00;99.90;1.90;97417.00;;;;5052811;28;20451;-87
2023/02/03 05:49:43;;;;;;;4.73;4.27;;;2.20;99.90;2.10;97427.00;;;;5075004;28;20434;-87
2023/02/03 05:52:32;;;;;;;5.93;4.47;;;1.00;99.90;2.20;97435.00;;;;5072076;28;20853;-88
2023/02/03 05:55:22;;;;;;;4.17;3.77;;;1.30;99.90;2.20;97419.00;;;;5065221;28;20435;-88
2023/02/03 05:58:11;;;;;;;6.20;3.70;;;1.90;99.90;2.00;97422.00;;;;5059337;28;20508;-89
2023/02/03 06:01:00;;;;;;;5.30;3.97;;;1.00;99.90;2.20;97428.00;;;;5046686;28;20478;-88
2023/02/03 06:03:49;;;;;;;13.23;9.07;;;1.30;99.90;2.10;97415.00;;;;5052233;28;20438;-87
2023/02/03 06:06:38;;;;;;;8.47;6.20;;;2.70;99.90;1.80;97414.00;;;;5041793;28;20981;-88
2023/02/03 06:09:27;;;;;;;4.97;4.23;;;1.20;99.90;2.00;97424.00;;;;5050296;28;20435;-87
2023/02/03 06:12:17;;;;;;;4.63;4.10;;;1.60;99.90;2.20;97406.00;;;;5056309;28;20487;-87
2023/02/03 06:15:06;;;;;;;5.60;4.03;;;2.20;99.90;2.20;97404.00;;;;5059730;28;20490;-87
2023/02/03 06:17:55;;;;;;;5.07;4.17;;;1.00;99.90;2.00;97412.00;;;;5045229;28;20497;-87
2023/02/03 06:20:44;;;;;;;6.37;5.23;;;1.20;99.90;1.80;97402.00;;;;5055274;28;20470;-87
2023/02/03 06:23:33;;;;;;;4.47;3.77;;;0.90;99.90;2.00;97403.00;;;;5049875;28;20501;-87
2023/02/03 06:26:22;;;;;;;6.00;4.80;;;0.90;99.90;2.10;97393.00;;;;5054620;28;20424;-88
2023/02/03 06:29:12;;;;;;;4.00;3.27;;;1.70;99.90;2.10;97397.00;;;;5050520;28;20442;-87
2023/02/03 06:32:01;;;;;;;8.43;4.47;;;3.30;99.90;2.10;97394.00;;;;5047698;28;20549;-88
2023/02/03 06:34:49;;;;;;;4.43;3.63;;;1.50;99.90;2.20;97390.00;;;;5049450;28;20435;-87
2023/02/03 06:37:38;;;;;;;3.60;3.30;;;3.40;99.90;2.20;97384.00;;;;5043564;28;20977;-87
2023/02/03 06:40:27;;;;;;;4.17;3.77;;;2.80;99.90;2.20;97377.00;;;;5050452;28;20568;-87
2023/02/03 06:43:17;;;;;;;3.77;3.00;;;3.20;99.90;2.10;97363.00;;;;5053609;28;20432;-87
2023/02/03 06:46:07;;;;;;;4.80;3.63;;;1.60;99.90;2.00;97376.00;;;;5043897;28;20458;-88
2023/02/03 06:48:56;;;;;;;6.23;3.90;;;0.90;99.90;2.20;97375.00;;;;5048548;28;20946;-88
2023/02/03 06:51:46;;;;;;;3.10;2.90;;;2.10;99.90;2.20;97379.00;;;;5057746;28;20438;-87
2023/02/03 06:54:35;;;;;;;2.73;2.53;;;1.80;99.90;2.30;97386.00;;;;5050314;28;20443;-87
2023/02/03 06:57:24;;;;;;;2.70;2.50;;;0.90;99.90;2.20;97374.00;;;;5051464;28;20871;-88
2023/02/03 07:00:16;;;;;;;3.63;3.33;;;1.20;99.90;1.90;97379.00;;;;5055622;28;20471;-87
2023/02/03 07:03:08;;;;;;;5.17;3.70;;;1.10;99.90;1.90;97358.00;;;;5054000;28;20808;-87
2023/02/03 07:05:57;;;;;;;3.43;3.13;;;1.20;99.90;1.80;97365.00;;;;5053866;28;20945;-88
2023/02/03 07:08:54;;;;;;;3.20;2.20;;;1.00;99.90;2.20;97363.00;;;;5053806;28;20424;-87
2023/02/03 07:11:46;;;;;;;3.30;2.60;;;1.30;99.90;2.30;97367.00;;;;5055531;28;20474;-88
2023/02/03 07:14:38;;;;;;;2.13;1.93;;;1.00;99.90;2.50;97362.00;;;;5042296;28;20969;-88
2023/02/03 07:17:28;;;;;;;2.87;2.20;;;3.10;99.90;2.60;97379.00;;;;5052308;28;20454;-87
2023/02/03 07:20:24;;;;;;;2.50;2.27;;;1.40;99.90;2.70;97368.00;;;;5053503;28;20467;-87
2023/02/03 07:23:16;;;;;;;3.27;2.80;;;2.60;99.90;2.80;97364.00;;;;5048801;28;20415;-88
2023/02/03 07:26:07;;;;;;;3.70;3.27;;;1.40;99.90;3.10;97369.00;;;;5054768;28;20502;-88
2023/02/03 07:28:58;;;;;;;4.73;4.23;;;2.00;99.90;3.00;97356.00;;;;5051206;28;20431;-88
2023/02/03 07:31:48;;;;;;;3.97;2.60;;;4.00;99.90;2.70;97341.00;;;;5051838;28;20450;-88
2023/02/03 07:34:37;;;;;;;3.53;2.33;;;1.70;99.90;2.50;97330.00;;;;5052687;28;20442;-88
2023/02/03 07:37:28;;;;;;;2.63;2.43;;;1.60;99.90;2.80;97316.00;;;;5050346;28;20984;-89
2023/02/03 07:40:21;;;;;;;3.13;2.67;;;1.70;99.90;3.20;97304.00;;;;5050506;28;20450;-88
2023/02/03 07:43:11;;;;;;;2.73;2.53;;;1.80;99.90;3.30;97310.00;;;;5051092;28;20428;-89
2023/02/03 07:46:08;;;;;;;3.07;1.90;;;2.20;99.90;3.60;97302.00;;;;5050864;28;20432;-89
2023/02/03 07:48:58;;;;;;;2.27;2.07;;;3.10;99.90;3.40;97314.00;;;;5041021;28;20948;-89
2023/02/03 07:51:47;;;;;;;3.20;2.63;;;2.20;99.90;3.40;97292.00;;;;5050099;28;20423;-89
2023/02/03 07:54:53;;;;;;;3.03;2.73;;;2.50;99.90;3.60;97305.00;;;;5049951;28;20438;-89
2023/02/03 07:57:44;;;;;;;3.00;2.70;;;0.90;99.90;3.90;97332.00;;;;5051068;28;20439;-89
2023/02/03 08:00:34;;;;;;;4.23;3.83;;;2.40;99.90;3.70;97327.00;;;;5052204;28;20992;-88
2023/02/03 08:03:28;;;;;;;3.70;2.73;;;2.70;99.90;4.00;97335.00;;;;5062330;28;20643;-89
2023/02/03 08:06:18;;;;;;;3.73;3.30;;;3.10;99.90;4.00;97329.00;;;;5063270;28;20435;-88
2023/02/03 08:09:07;;;;;;;2.23;2.10;;;3.00;99.90;3.60;97333.00;;;;5057584;28;20420;-88
2023/02/03 08:12:03;;;;;;;4.73;3.03;;;2.70;99.90;3.80;97321.00;;;;5056710;28;20952;-88
2023/02/03 08:14:53;;;;;;;2.77;2.47;;;2.60;99.90;4.00;97311.00;;;;5050873;28;20431;-88
2023/02/03 08:17:44;;;;;;;2.50;2.30;;;2.80;99.90;3.60;97319.00;;;;5049763;28;20459;-89
2023/02/03 08:20:33;;;;;;;2.13;2.00;;;3.00;99.90;3.50;97317.00;;;;5049779;28;20468;-88
2023/02/03 08:23:24;;;;;;;4.60;3.57;;;2.90;99.90;3.70;97296.00;;;;5049889;28;20867;-88
2023/02/03 08:26:37;;;;;;;4.43;3.30;;;2.70;99.90;4.20;97309.00;;;;5050835;28;20508;-88
2023/02/03 08:29:32;;;;;;;6.73;3.97;;;3.00;99.90;4.30;97304.00;;;;5049572;28;20435;-88
2023/02/03 08:32:23;;;;;;;5.87;4.30;;;2.90;99.90;4.30;97299.00;;;;5038701;28;20522;-88
2023/02/03 08:35:15;;;;;;;6.37;4.73;;;4.40;99.90;4.10;97306.00;;;;5049562;28;20458;-87
2023/02/03 08:38:04;;;;;;;4.73;3.13;;;3.30;99.90;3.70;97301.00;;;;5049106;28;20450;-87
2023/02/03 08:40:53;;;;;;;4.07;3.47;;;3.30;99.90;3.60;97309.00;;;;5052456;28;20478;-86
2023/02/03 08:43:42;;;;;;;9.03;3.77;;;3.20;99.90;3.90;97318.00;;;;5050065;28;20442;-87
2023/02/03 08:46:34;;;;;;;5.60;5.00;;;3.30;99.90;4.20;97298.00;;;;5049159;28;20466;-87
2023/02/03 08:49:26;;;;;;;6.77;4.20;;;3.10;99.90;4.80;97303.00;;;;5045903;28;20438;-88
2023/02/03 08:52:15;;;;;;;5.13;3.03;;;1.90;99.90;4.20;97298.00;;;;5047118;28;20558;-87
2023/02/03 08:55:07;;;;;;;5.67;4.37;;;4.80;99.90;4.40;97278.00;;;;5045679;28;20978;-87
2023/02/03 08:58:11;;;;;;;6.67;5.60;;;3.30;99.90;5.00;97271.00;;;;5045529;28;20865;-86
2023/02/03 09:01:09;;;;;;;5.23;4.70;;;3.80;99.90;5.40;97291.00;;;;5051311;28;20474;-86
2023/02/03 09:04:02;;;;;;;2.20;2.00;;;3.80;99.90;4.60;97289.00;;;;5055754;28;20516;-87
2023/02/03 09:06:53;;;;;;;2.47;2.27;;;3.70;99.90;4.70;97286.00;;;;5061836;28;20976;-88
2023/02/03 09:09:42;;;;;;;3.73;2.87;;;3.80;99.90;4.40;97294.00;;;;5052616;28;20432;-86
2023/02/03 09:12:31;;;;;;;6.87;3.60;;;3.50;99.90;4.20;97280.00;;;;5055399;28;20442;-87
2023/02/03 09:15:20;;;;;;;4.50;3.63;;;3.40;99.90;5.20;97312.00;;;;5048268;28;20428;-88
2023/02/03 09:18:09;;;;;;;6.57;4.80;;;3.70;99.90;5.70;97274.00;;;;5051143;28;20823;-87
2023/02/03 09:21:03;;;;;;;5.30;4.40;;;3.90;99.90;5.90;97293.00;;;;5051823;28;21019;-88
2023/02/03 09:23:51;;;;;;;10.57;6.23;;;5.00;99.90;6.30;97289.00;;;;5048677;28;20213;-88
2023/02/03 09:26:40;;;;;;;7.03;4.67;;;4.60;99.90;6.80;97291.00;;;;5056399;28;20235;-88
2023/02/03 09:29:30;;;;;;;3.83;3.53;;;4.70;99.90;7.10;97302.00;;;;5057145;28;20215;-88
2023/02/03 09:32:19;;;;;;;3.67;3.07;;;5.20;99.90;6.90;97317.00;;;;5050596;28;20676;-87
2023/02/03 09:35:08;;;;;;;4.03;3.23;;;5.40;99.90;7.20;97304.00;;;;5053649;28;20197;-87
2023/02/03 09:37:59;;;;;;;3.37;3.07;;;5.40;99.90;7.40;97311.00;;;;5053638;28;20221;-88
2023/02/03 09:40:54;;;;;;;3.97;3.33;;;5.50;99.90;7.70;97302.00;;;;5065693;28;20243;-88
2023/02/03 09:44:06;;;;;;;7.00;3.20;;;5.80;99.90;7.30;97302.00;;;;5057711;28;20192;-89
2023/02/03 09:47:00;;;;;;;4.23;3.20;;;5.80;99.90;7.60;97299.00;;;;5048929;28;20218;-88
2023/02/03 09:49:53;;;;;;;4.07;3.60;;;6.10;99.90;7.80;97294.00;;;;5063188;28;20209;-88
2023/02/03 09:52:43;;;;;;;3.10;2.33;;;6.10;99.90;7.20;97306.00;;;;5055129;28;20299;-88
2023/02/03 09:55:37;;;;;;;3.47;3.17;;;6.00;99.90;7.50;97269.00;;;;5057125;28;20228;-87
2023/02/03 09:58:29;;;;;;;3.50;2.97;;;6.10;99.90;8.10;97265.00;;;;5066772;28;20624;-88
2023/02/03 10:01:21;;;;;;;3.17;2.87;;;6.30;99.90;7.70;97265.00;;;;5057063;28;20224;-87
2023/02/03 10:04:27;;;;;;;4.23;3.37;;;6.20;99.90;8.10;97254.00;;;;5056854;28;20606;-88
2023/02/03 10:07:24;;;;;;;5.10;3.10;;;6.40;99.90;8.30;97267.00;;;;5056187;28;20239;-87
2023/02/03 10:10:24;;;;;;;2.70;2.50;;;6.40;99.90;8.70;97258.00;;;;5057778;28;20592;-87
2023/02/03 10:13:28;;;;;;;3.63;3.07;;;6.70;99.90;9.20;97254.00;;;;5056501;28;20275;-88
2023/02/03 10:16:42;;;;;;;3.73;3.43;;;7.00;99.90;9.40;97255.00;;;;5063896;28;20201;-88
2023/02/03 10:19:43;;;;;;;2.90;2.57;;;7.30;99.90;9.80;97228.00;;;;5042752;28;20591;-88
2023/02/03 10:22:40;;;;;;;4.00;2.00;;;7.60;99.90;9.90;97237.00;;;;5056029;28;20231;-88
2023/02/03 10:25:36;;;;;;;3.17;2.50;;;7.90;99.90;10.00;97227.00;;;;5058618;28;20201;-87
2023/02/03 10:28:31;;;;;;;3.20;2.63;;;8.00;99.90;10.20;97223.00;;;;5055743;28;20227;-85
2023/02/03 10:31:22;;;;;;;5.60;2.30;;;8.20;99.90;10.40;97217.00;;;;5058077;28;20209;-87
2023/02/03 10:34:14;;;;;;;2.77;2.57;;;8.50;99.90;10.70;97205.00;;;;5059639;28;20236;-87
2023/02/03 10:37:12;;;;;;;2.37;2.17;;;8.70;99.90;11.20;97213.00;;;;5068200;28;20228;-86
2023/02/03 10:40:02;;;;;;;2.70;2.37;;;8.80;99.90;11.20;97194.00;;;;5049906;28;20579;-87
2023/02/03 10:46:00;;;;;;;3.73;3.00;;;9.60;99.90;12.50;97160.00;;;;5050641;28;20569;-88
2023/02/03 10:48:49;;;;;;;5.70;4.20;;;10.70;99.90;13.20;97170.00;;;;5054405;28;20200;-88
2023/02/03 10:51:50;;;;;;;3.97;3.57;;;11.70;99.90;13.00;97171.00;;;;5052411;28;20197;-88
2023/02/03 10:54:39;;;;;;;4.50;3.60;;;12.40;99.90;13.80;97171.00;;;;5061574;28;20219;-88
2023/02/03 10:57:29;;;;;;;4.03;3.37;;;12.80;99.90;14.10;97170.00;;;;5056444;28;20228;-88
2023/02/03 11:00:24;;;;;;;4.50;3.17;;;13.10;99.90;13.90;97162.00;;;;5056242;28;20204;-88
2023/02/03 11:03:25;;;;;;;5.03;3.00;;;13.40;99.90;13.10;97169.00;;;;5054985;28;20230;-88
2023/02/03 11:06:16;;;;;;;3.30;3.00;;;13.00;99.90;13.30;97161.00;;;;5055857;28;20212;-88
2023/02/03 11:09:28;;;;;;;6.87;2.60;;;12.20;99.90;13.30;97162.00;;;;5050414;28;20208;-88
2023/02/03 11:12:19;;;;;;;2.87;2.53;;;12.60;99.90;12.50;97159.00;;;;5059470;28;20218;-88
2023/02/03 11:15:15;;;;;;;2.50;2.30;;;12.30;99.90;12.20;97136.00;;;;5052471;28;20204;-88
2023/02/03 11:18:04;;;;;;;2.97;2.67;;;11.70;99.90;12.20;97136.00;;;;5052879;28;20228;-88
2023/02/03 11:20:55;;;;;;;3.43;2.20;;;11.70;99.90;12.50;97121.00;;;;5046005;28;20204;-88
2023/02/03 11:24:04;;;;;;;3.30;2.63;;;11.40;99.90;11.20;97116.00;;;;5065443;28;20200;-87
2023/02/03 11:26:57;;;;;;;3.07;2.77;;;11.30;99.90;11.10;97109.00;;;;5055231;28;20228;-88
2023/02/03 11:29:49;;;;;;;3.30;2.70;;;10.80;99.90;11.80;97121.00;;;;5053222;28;20199;-87
2023/02/03 11:32:42;;;;;;;7.30;2.50;;;11.00;99.90;10.80;97085.00;;;;5054176;28;20290;-87
2023/02/03 11:35:32;;;;;;;2.40;2.20;;;10.40;99.90;12.20;97091.00;;;;5062720;28;20212;-88
2023/02/03 11:38:35;;;;;;;3.73;3.30;;;10.40;99.90;10.60;97090.00;;;;5052102;28;20216;-86
2023/02/03 11:41:24;;;;;;;2.40;2.20;;;10.30;99.90;12.00;97082.00;;;;5050953;28;20196;-87
2023/02/03 11:44:19;;;;;;;3.60;2.90;;;10.20;99.90;12.40;97075.00;;;;5066724;28;20398;-88
2023/02/03 11:47:12;;;;;;;4.17;3.77;;;10.50;99.90;12.90;97055.00;;;;5058471;28;20227;-87
2023/02/03 11:50:21;;;;;;;1.70;1.60;;;10.60;99.90;12.80;97051.00;;;;5047068;28;20208;-88
2023/02/03 11:53:32;;;;;;;2.20;1.80;;;10.90;99.90;13.00;97059.00;;;;5062297;28;20228;-89
2023/02/03 11:57:00;;;;;;;2.17;1.97;;;11.30;99.90;11.60;97049.00;;;;5051168;28;20768;-87
2023/02/03 12:00:14;;;;;;;5.30;1.90;;;10.80;99.90;11.90;97036.00;;;;5044989;28;20196;-88
2023/02/03 12:03:40;;;;;;;2.77;1.33;;;10.70;99.90;12.20;97025.00;;;;5049123;28;20196;-87
2023/02/03 12:07:01;;;;;;;4.40;1.47;;;10.60;99.90;12.70;97032.00;;;;5059931;28;20231;-88
2023/02/03 12:10:04;;;;;;;3.80;1.80;;;10.90;99.90;12.80;97029.00;;;;5053865;28;20200;-88
2023/02/03 12:13:01;;;;;;;1.13;0.80;;;10.90;99.90;12.50;97032.00;;;;5070262;28;20231;-88
2023/02/03 12:16:08;;;;;;;0.93;0.60;;;11.00;99.90;13.10;97019.00;;;;5054052;28;20231;-89
2023/02/03 12:19:10;;;;;;;6.40;1.10;;;11.20;99.90;13.30;96998.00;;;;5050793;28;20211;-88
2023/02/03 12:22:09;;;;;;;3.23;0.70;;;11.30;99.90;13.60;96996.00;;;;5065655;28;20208;-88
2023/02/03 12:25:14;;;;;;;0.33;0.33;;;11.60;99.90;13.50;96983.00;;;;5055737;28;20220;-88
2023/02/03 12:28:19;;;;;;;0.30;0.30;;;11.70;99.90;13.90;96977.00;;;;5051278;28;20691;-87
2023/02/03 12:31:28;;;;;;;0.73;0.40;;;11.80;99.90;14.10;96999.00;;;;5052087;28;20211;-88
2023/02/03 12:34:24;;;;;;;0.40;0.40;;;12.20;99.90;13.90;96981.00;;;;5047689;28;20203;-89
2023/02/03 12:37:19;;;;;;;1.53;0.37;;;12.30;99.90;13.60;96980.00;;;;5041182;28;20228;-87
2023/02/03 12:40:18;;;;;;;1.27;0.43;;;12.10;99.90;13.30;96974.00;;;;5048594;28;20201;-87
2023/02/03 12:43:21;;;;;;;0.47;0.47;;;11.90;99.90;13.40;96967.00;;;;5050236;28;20309;-89
2023/02/03 12:46:16;;;;;;;0.50;0.50;;;12.00;99.90;13.50;96942.00;;;;5048643;28;20200;-88
2023/02/03 12:49:15;;;;;;;4.80;1.03;;;11.90;99.90;13.20;96948.00;;;;5045305;28;20204;-88
2023/02/03 12:52:16;;;;;;;0.47;0.30;;;11.90;99.90;13.00;96939.00;;;;5049013;28;20231;-87
2023/02/03 12:55:22;;;;;;;0.83;0.70;;;11.70;99.90;13.00;96918.00;;;;5050052;28;20193;-87
2023/02/03 12:58:23;;;;;;;0.60;0.40;;;11.50;99.90;12.80;96923.00;;;;5050680;28;20228;-87
2023/02/03 13:01:21;;;;;;;0.30;0.30;;;11.60;99.90;12.80;96911.00;;;;5049025;28;20209;-89
2023/02/03 13:05:31;;;;;;;0.40;0.40;;;11.30;99.90;12.20;96910.00;;;;5049099;28;20205;-88
2023/02/03 13:08:44;;;;;;;0.80;0.60;;;9.20;99.90;12.80;96896.00;;;;5036055;28;20215;-87
2023/02/03 13:11:41;;;;;;;0.50;0.37;;;11.00;99.90;12.60;96893.00;;;;5052871;28;20218;-87
2023/02/03 13:14:37;;;;;;;0.73;0.67;;;10.90;99.90;12.80;96870.00;;;;5050421;28;20204;-88